CheckWX is a tool to help pilots better visualize weather data.  It is not intended as a substitute for an official pre-flight weather briefing.

18:30:39 UTC

TJSJ METAR
Luis Munoz Marin International Airport
San Juan, Puerto Rico, USA
Current

35 mins ago

TJSJ 161756Z 09013G23KT 10SM FEW026 SCT034 BKN050 27/23 A3003 RMK AO2 RAB36E54 SLP166 VCSH S SW-W NW P0000 60000 T02670228 10289 20250 58018
Observed
Feb-16 @ 17:56 UTC
Wind
  • 090° at 13 KTS
  • Gusting to 23 KTS
Visibility
10 SM
Flight Rules
VFR
Cloud Levels
  • Few at 2,600' AGL
  • Scattered at 3,400' AGL
  • Broken at 5,000' AGL
Temperature
27°C / 81°F
Dewpoint
23°C / 73°F
Heat Index
30°C / 86°F
Humidity
79%
Altimeter
30.03" Hg
Pressure
1016.92 hPa
Current Rain
0.01"
Previous

2 hours ago

TJSJ 161656Z 08016KT 10SM SCT026 SCT055 BKN085 27/21 A3005 RMK AO2 PK WND 08030/1630 SLP174 VCSH SE S SW T02720211
Observed
Feb-16 @ 16:56 UTC
Wind
  • 080° at 16 KTS
Visibility
10 SM
Flight Rules
VFR
Cloud Levels
  • Scattered at 2,600' AGL
  • Scattered at 5,500' AGL
  • Broken at 8,500' AGL
Temperature
27°C / 81°F
Dewpoint
21°C / 70°F
Heat Index
29°C / 85°F
Humidity
70%
Altimeter
30.05" Hg
Pressure
1017.62 hPa
Previous

3 hours ago

TJSJ 161556Z 07017KT 10SM FEW022 SCT027 BKN060 28/22 A3007 RMK AO2 RAB45E53 SLP182 SHRA DSNT SE P0000 T02780217
Observed
Feb-16 @ 15:56 UTC
Wind
  • 070° at 17 KTS
Visibility
10 SM
Flight Rules
VFR
Cloud Levels
  • Few at 2,200' AGL
  • Scattered at 2,700' AGL
  • Broken at 6,000' AGL
Temperature
28°C / 82°F
Dewpoint
22°C / 72°F
Heat Index
30°C / 86°F
Humidity
70%
Altimeter
30.07" Hg
Pressure
1018.32 hPa
Current Rain
0.01"